createdAt,value
2018-03-21T00:00:28.762Z,88.70
2018-03-21T00:02:58.382Z,94.03
2018-03-21T00:05:30.531Z,96.97
2018-03-21T00:08:00.269Z,91.90
2018-03-21T00:10:30.042Z,99.83
2018-03-21T00:13:00.120Z,116.37
2018-03-21T00:15:31.335Z,111.93
2018-03-21T00:20:38.600Z,109.80
2018-03-21T00:23:08.274Z,89.90
2018-03-21T00:25:41.205Z,96.47
2018-03-21T00:31:31.920Z,136.53
2018-03-21T00:34:02.475Z,128.57
2018-03-21T00:36:33.524Z,191.43
2018-03-21T00:39:04.551Z,155.03
2018-03-21T00:41:35.262Z,126.97
2018-03-21T00:44:08.638Z,115.70
2018-03-21T00:46:38.854Z,121.03
2018-03-21T00:49:09.152Z,98.50
2018-03-21T00:51:44.247Z,87.63
2018-03-21T00:54:13.935Z,124.97
2018-03-21T00:56:44.837Z,106.03
2018-03-21T00:59:14.548Z,167.10
2018-03-21T01:01:44.857Z,168.87
2018-03-21T01:04:15.383Z,118.47
2018-03-21T01:06:46.933Z,150.90
2018-03-21T01:12:43.239Z,105.33
2018-03-21T01:15:12.721Z,101.50
2018-03-21T01:17:42.135Z,262.43
2018-03-21T01:20:11.548Z,129.50
2018-03-21T01:22:43.449Z,103.23
2018-03-21T01:25:16.669Z,99.80
2018-03-21T01:27:50.712Z,116.60
2018-03-21T01:30:22.641Z,108.93
2018-03-21T01:32:52.142Z,113.80
2018-03-21T01:35:23.257Z,101.33
2018-03-21T01:37:54.031Z,110.97
2018-03-21T01:40:27.426Z,104.93
2018-03-21T01:42:58.728Z,97.87
2018-03-21T01:45:28.913Z,103.33
2018-03-21T01:51:25.946Z,105.83
2018-03-21T01:53:57.118Z,98.30
2018-03-21T01:56:30.415Z,96.00
2018-03-21T01:59:00.203Z,102.00
2018-03-21T02:01:29.893Z,99.87
2018-03-21T02:04:00.244Z,102.90
2018-03-21T02:06:34.428Z,114.53
2018-03-21T02:09:07.168Z,105.80
2018-03-21T02:11:41.293Z,104.70
2018-03-21T02:14:12.221Z,100.37
2018-03-21T02:16:42.583Z,94.97
2018-03-21T02:19:11.901Z,98.77
2018-03-21T02:21:41.494Z,96.77
2018-03-21T02:24:13.292Z,111.40
2018-03-21T02:26:42.688Z,96.47
2018-03-21T02:32:34.569Z,118.27
2018-03-21T02:35:12.219Z,119.03
2018-03-21T02:37:42.693Z,104.93
2018-03-21T02:40:12.207Z,82.97
2018-03-21T02:42:44.406Z,58.93
2018-03-21T02:45:15.442Z,53.97
2018-03-21T02:47:46.214Z,46.50
2018-03-21T02:50:17.805Z,38.93
2018-03-21T02:55:28.079Z,36.33
2018-03-21T02:58:00.846Z,39.10
2018-03-21T03:00:38.314Z,33.27
2018-03-21T03:03:09.135Z,41.13
2018-03-21T03:05:43.501Z,34.43
2018-03-21T03:08:14.074Z,35.23
2018-03-21T03:10:43.592Z,35.03
2018-03-21T03:13:14.157Z,36.93
2018-03-21T03:15:43.748Z,35.73
2018-03-21T03:18:13.225Z,36.53
2018-03-21T03:20:43.685Z,31.70
2018-03-21T03:23:13.193Z,41.70
2018-03-21T03:25:43.651Z,34.60
2018-03-21T03:28:13.454Z,28.67
2018-03-21T03:30:43.414Z,28.57
2018-03-21T03:33:13.044Z,25.60
2018-03-21T03:35:42.579Z,26.53
2018-03-21T03:38:12.481Z,27.57
2018-03-21T03:40:42.017Z,20.33
2018-03-21T03:43:13.369Z,19.70
2018-03-21T03:45:43.090Z,26.17
2018-03-21T03:48:15.114Z,18.33
2018-03-21T03:50:45.382Z,16.60
2018-03-21T03:53:15.235Z,17.80
2018-03-21T03:55:44.718Z,17.40
2018-03-21T03:58:14.566Z,13.60
2018-03-21T04:00:44.066Z,17.33
2018-03-21T04:03:13.640Z,11.53
2018-03-21T04:05:43.106Z,12.93
2018-03-21T04:08:12.785Z,13.87
2018-03-21T04:10:43.727Z,20.33
2018-03-21T04:13:13.260Z,16.87
2018-03-21T04:15:43.011Z,14.37
2018-03-21T04:18:12.461Z,17.13
2018-03-21T04:20:42.289Z,17.73
2018-03-21T04:23:13.330Z,18.23
2018-03-21T04:25:44.786Z,18.13
2018-03-21T04:28:16.195Z,21.70
2018-03-21T04:30:47.508Z,17.40
2018-03-21T04:36:16.425Z,14.67
2018-03-21T04:38:46.368Z,15.43
2018-03-21T04:41:16.014Z,14.50
2018-03-21T04:43:45.485Z,13.23
2018-03-21T04:46:15.159Z,16.37
2018-03-21T04:48:45.078Z,14.60
2018-03-21T04:51:18.226Z,13.63
2018-03-21T04:53:48.053Z,17.27
2018-03-21T04:56:18.726Z,13.80
2018-03-21T04:58:49.275Z,16.13
2018-03-21T05:01:18.735Z,11.87
2018-03-21T05:03:52.755Z,11.23
2018-03-21T05:09:46.188Z,14.50
2018-03-21T05:12:16.098Z,12.03
2018-03-21T05:14:46.252Z,10.53
2018-03-21T05:17:16.698Z,8.83
2018-03-21T05:19:46.353Z,14.17
2018-03-21T05:22:17.193Z,13.00
2018-03-21T05:24:47.224Z,9.27
2018-03-21T05:27:19.040Z,11.13
2018-03-21T05:29:51.833Z,18.53
2018-03-21T05:32:21.981Z,18.90
2018-03-21T05:34:51.392Z,17.50
2018-03-21T05:37:20.855Z,14.00
2018-03-21T05:39:50.338Z,16.70
2018-03-21T05:42:20.028Z,15.23
2018-03-21T05:44:49.566Z,16.27
2018-03-21T05:47:19.173Z,13.97
2018-03-21T05:49:48.745Z,12.70
2018-03-21T05:52:18.596Z,15.67
2018-03-21T05:54:48.205Z,15.07
2018-03-21T05:57:18.373Z,16.63
2018-03-21T05:59:48.001Z,15.70
2018-03-21T06:02:18.351Z,17.60
2018-03-21T06:04:47.860Z,13.73
2018-03-21T06:07:17.340Z,17.40
2018-03-21T06:09:46.816Z,14.27
2018-03-21T06:12:16.258Z,24.50
2018-03-21T06:14:45.686Z,20.00
2018-03-21T06:17:15.881Z,15.87
2018-03-21T06:19:45.322Z,25.33
2018-03-21T06:22:16.244Z,25.67
2018-03-21T06:24:45.849Z,22.07
2018-03-21T06:27:15.165Z,28.33
2018-03-21T06:29:44.781Z,20.17
2018-03-21T06:32:14.275Z,22.07
2018-03-21T06:34:43.719Z,14.23
2018-03-21T06:37:13.167Z,18.93
2018-03-21T06:39:42.622Z,27.63
2018-03-21T06:42:12.048Z,20.63
2018-03-21T06:44:41.517Z,26.63
2018-03-21T06:47:10.977Z,21.53
2018-03-21T06:49:41.652Z,24.70
2018-03-21T06:52:12.046Z,31.07
2018-03-21T06:54:41.508Z,22.60
2018-03-21T06:57:11.022Z,19.17
2018-03-21T06:59:41.785Z,25.20
2018-03-21T07:02:11.327Z,26.87
2018-03-21T07:04:40.800Z,26.80
2018-03-21T07:07:10.149Z,25.77
2018-03-21T07:09:40.533Z,28.03
2018-03-21T07:12:40.582Z,26.47
2018-03-21T07:15:21.190Z,35.87
2018-03-21T07:17:50.734Z,27.53
2018-03-21T07:20:20.085Z,34.13
2018-03-21T07:22:49.683Z,28.37
2018-03-21T07:25:19.110Z,32.63
2018-03-21T07:27:49.328Z,31.40
2018-03-21T07:30:19.510Z,31.40
2018-03-21T07:32:48.901Z,27.20
2018-03-21T07:38:39.005Z,32.63
2018-03-21T07:41:08.427Z,31.23
2018-03-21T07:43:37.735Z,26.90
2018-03-21T07:46:08.056Z,27.23
2018-03-21T07:48:38.330Z,25.80
2018-03-21T07:51:08.135Z,27.27
2018-03-21T07:53:37.601Z,24.27
2018-03-21T07:56:07.876Z,26.80
2018-03-21T07:58:37.187Z,22.07
2018-03-21T08:01:06.823Z,25.33
2018-03-21T08:03:36.209Z,21.90
2018-03-21T08:06:05.594Z,22.50
2018-03-21T08:08:35.948Z,24.80
2018-03-21T08:11:05.622Z,26.10
2018-03-21T08:13:34.967Z,30.27
2018-03-21T08:19:34.999Z,26.63
2018-03-21T08:22:04.710Z,24.97
2018-03-21T08:24:34.193Z,27.97
2018-03-21T08:30:25.324Z,27.23
2018-03-21T08:32:54.889Z,29.53
2018-03-21T08:35:24.346Z,35.67
2018-03-21T08:37:53.941Z,27.13
2018-03-21T08:40:23.419Z,24.50
2018-03-21T08:42:52.944Z,31.37
2018-03-21T08:45:22.500Z,30.70
2018-03-21T08:47:52.093Z,25.93
2018-03-21T08:50:21.611Z,33.03
2018-03-21T08:52:51.189Z,28.43
2018-03-21T08:55:20.874Z,32.73
2018-03-21T08:57:50.346Z,37.30
2018-03-21T09:00:19.926Z,32.13
2018-03-21T09:02:49.638Z,37.03
2018-03-21T09:05:19.957Z,31.37
2018-03-21T09:07:50.245Z,30.07
2018-03-21T09:10:19.812Z,34.13
2018-03-21T09:16:10.339Z,31.57
2018-03-21T09:18:40.627Z,36.83
2018-03-21T09:21:11.071Z,32.40
2018-03-21T09:23:40.803Z,30.50
2018-03-21T09:26:10.504Z,29.83
2018-03-21T09:28:40.190Z,31.27
2018-03-21T09:31:09.902Z,34.73
2018-03-21T09:33:39.689Z,39.03
2018-03-21T09:36:10.401Z,31.73
2018-03-21T09:38:39.950Z,28.53
2018-03-21T09:41:09.783Z,33.73
2018-03-21T09:43:39.595Z,31.50
2018-03-21T09:46:09.521Z,33.03
2018-03-21T09:49:21.139Z,29.43
2018-03-21T09:51:50.436Z,36.47
2018-03-21T09:54:19.989Z,33.77
2018-03-21T09:56:49.460Z,31.60
2018-03-21T10:02:40.155Z,32.17
2018-03-21T10:05:09.602Z,30.93
2018-03-21T10:07:39.251Z,35.50
2018-03-21T10:10:09.177Z,29.50
2018-03-21T10:12:38.635Z,23.33
2018-03-21T10:15:08.260Z,28.47
2018-03-21T10:17:38.519Z,31.47
2018-03-21T10:20:08.056Z,29.37
2018-03-21T10:22:37.510Z,30.70
2018-03-21T10:25:07.118Z,33.07
2018-03-21T10:27:38.464Z,28.53
2018-03-21T10:30:08.351Z,29.07
2018-03-21T10:32:37.800Z,30.70
2018-03-21T10:35:07.369Z,31.80
2018-03-21T10:37:37.056Z,28.97
2018-03-21T10:40:06.615Z,33.37
2018-03-21T10:42:36.057Z,31.67
2018-03-21T10:45:05.706Z,33.57
2018-03-21T10:47:35.296Z,33.50
2018-03-21T10:50:05.208Z,27.53
2018-03-21T10:52:38.914Z,30.10
2018-03-21T10:55:04.489Z,27.40
2018-03-21T10:58:04.346Z,36.53
2018-03-21T11:00:33.675Z,26.60
2018-03-21T11:03:07.821Z,34.20
2018-03-21T11:05:38.238Z,29.43
2018-03-21T11:08:07.737Z,37.37
2018-03-21T11:10:37.199Z,30.77
2018-03-21T11:13:06.604Z,28.80
2018-03-21T11:15:36.064Z,29.37
2018-03-21T11:18:05.620Z,27.30
2018-03-21T11:20:34.948Z,32.47
2018-03-21T11:23:04.404Z,27.70
2018-03-21T11:28:54.949Z,33.67
2018-03-21T11:31:24.238Z,29.50
2018-03-21T11:33:53.669Z,33.63
2018-03-21T11:36:23.522Z,33.60
2018-03-21T11:38:53.729Z,26.37
2018-03-21T11:41:25.912Z,31.10
2018-03-21T11:43:55.306Z,31.40
2018-03-21T11:46:24.901Z,29.97
2018-03-21T11:48:55.110Z,34.83
2018-03-21T11:51:24.664Z,27.33
2018-03-21T11:54:45.368Z,29.23
2018-03-21T11:57:14.880Z,35.80
2018-03-21T11:59:44.211Z,34.00
2018-03-21T12:02:13.813Z,28.13
2018-03-21T12:04:43.497Z,28.27
2018-03-21T12:07:13.158Z,29.27
2018-03-21T12:09:42.806Z,29.20
2018-03-21T12:12:13.214Z,29.63
2018-03-21T12:14:42.647Z,34.93
2018-03-21T12:17:12.025Z,38.20
2018-03-21T12:19:42.198Z,28.50
2018-03-21T12:22:11.575Z,26.43
2018-03-21T12:24:40.882Z,31.17
2018-03-21T12:27:12.401Z,28.70
2018-03-21T12:29:41.951Z,33.40
2018-03-21T12:32:11.320Z,26.90
2018-03-21T12:34:40.936Z,33.80
2018-03-21T12:37:15.925Z,26.73
2018-03-21T12:39:45.580Z,26.87
2018-03-21T12:42:16.484Z,25.17
2018-03-21T12:44:46.122Z,33.97
2018-03-21T12:47:15.687Z,27.70
2018-03-21T12:52:29.015Z,28.63
2018-03-21T12:54:58.852Z,26.80
2018-03-21T12:57:28.175Z,35.13
2018-03-21T12:59:57.624Z,31.97
2018-03-21T13:02:27.037Z,28.17
2018-03-21T13:04:59.499Z,38.87
2018-03-21T13:07:31.834Z,31.90
2018-03-21T13:10:01.887Z,24.27
2018-03-21T13:12:31.730Z,28.77
2018-03-21T13:15:01.351Z,29.70
2018-03-21T13:17:32.950Z,29.57
2018-03-21T13:20:02.939Z,29.40
2018-03-21T13:22:37.494Z,28.23
2018-03-21T13:25:11.282Z,28.50
2018-03-21T13:31:12.888Z,31.57
2018-03-21T13:33:43.189Z,31.13
2018-03-21T13:36:12.678Z,29.67
2018-03-21T13:38:43.237Z,29.30
2018-03-21T13:41:13.497Z,26.70
2018-03-21T13:43:43.738Z,21.80
2018-03-21T13:46:15.566Z,26.67
2018-03-21T13:48:46.315Z,20.63
2018-03-21T13:51:15.965Z,20.97
2018-03-21T13:53:51.142Z,20.07
2018-03-21T13:56:21.381Z,20.70
2018-03-21T13:58:50.828Z,22.87
2018-03-21T14:01:20.229Z,24.13
2018-03-21T14:07:13.371Z,26.83
2018-03-21T14:09:43.825Z,27.73
2018-03-21T14:12:13.119Z,23.90
2018-03-21T14:18:03.442Z,26.30
2018-03-21T14:20:32.883Z,22.47
2018-03-21T14:23:02.117Z,22.80
2018-03-21T14:25:33.802Z,19.73
2018-03-21T14:28:03.327Z,24.23
2018-03-21T14:30:33.079Z,24.00
2018-03-21T14:33:02.666Z,22.13
2018-03-21T14:35:31.954Z,21.97
2018-03-21T14:38:01.229Z,19.07
2018-03-21T14:40:30.592Z,24.03
2018-03-21T14:42:59.859Z,16.90
2018-03-21T14:45:40.285Z,24.60
2018-03-21T14:48:09.655Z,26.87
2018-03-21T14:50:38.977Z,18.43
2018-03-21T14:53:09.272Z,18.97
2018-03-21T14:55:38.662Z,21.20
2018-03-21T14:58:07.983Z,22.90
2018-03-21T15:00:38.088Z,17.90
2018-03-21T15:03:09.319Z,17.00
2018-03-21T15:05:38.827Z,22.47
2018-03-21T15:08:10.386Z,24.47
2018-03-21T15:10:39.695Z,28.77
2018-03-21T15:13:08.978Z,21.80
2018-03-21T15:15:38.303Z,21.97
2018-03-21T15:18:07.618Z,50.40
2018-03-21T15:20:41.935Z,64.57
2018-03-21T15:23:12.661Z,40.13
2018-03-21T15:25:45.347Z,54.27
2018-03-21T15:28:14.629Z,53.90
2018-03-21T15:30:43.925Z,44.70
2018-03-21T15:33:13.180Z,26.33
2018-03-21T15:35:42.623Z,25.90
2018-03-21T15:38:11.870Z,21.43
2018-03-21T15:40:41.563Z,20.23
2018-03-21T15:43:12.291Z,23.53
2018-03-21T15:45:41.927Z,21.80
2018-03-21T15:48:11.263Z,21.73
2018-03-21T15:50:40.527Z,21.27
2018-03-21T15:53:10.467Z,22.67
2018-03-21T15:55:39.922Z,26.83
2018-03-21T15:58:09.768Z,23.27
2018-03-21T16:00:39.847Z,27.97
2018-03-21T16:03:10.534Z,27.00
2018-03-21T16:05:43.706Z,29.27
2018-03-21T16:08:13.874Z,20.00
2018-03-21T16:11:13.027Z,26.93
2018-03-21T16:13:42.435Z,18.67
2018-03-21T16:16:11.731Z,21.80
2018-03-21T16:18:44.777Z,20.97
2018-03-21T16:21:17.294Z,27.97
2018-03-21T16:23:55.730Z,20.93
2018-03-21T16:26:25.379Z,24.10
2018-03-21T16:29:01.840Z,26.03
2018-03-21T16:31:31.240Z,20.63
2018-03-21T16:37:33.121Z,15.83
2018-03-21T16:40:02.698Z,23.87
2018-03-21T16:42:32.412Z,16.80
2018-03-21T16:48:33.570Z,20.97
2018-03-21T16:51:03.137Z,21.23
2018-03-21T16:53:32.600Z,19.97
2018-03-21T16:56:02.354Z,19.47
2018-03-21T16:58:42.560Z,18.33
2018-03-21T17:01:12.679Z,22.27
2018-03-21T17:03:42.382Z,23.63
2018-03-21T17:06:17.141Z,17.13
2018-03-21T17:08:58.384Z,23.13
2018-03-21T17:11:28.098Z,15.80
2018-03-21T17:13:57.629Z,21.87
2018-03-21T17:16:27.077Z,16.97
2018-03-21T17:18:57.796Z,22.97
2018-03-21T17:21:27.257Z,17.80
2018-03-21T17:23:59.077Z,18.03
2018-03-21T17:26:28.778Z,19.20
2018-03-21T17:28:58.383Z,17.83
2018-03-21T17:31:28.411Z,22.83
2018-03-21T17:33:58.801Z,26.43
2018-03-21T17:36:29.126Z,18.77
2018-03-21T17:38:58.812Z,20.10
2018-03-21T17:41:28.346Z,18.43
2018-03-21T17:43:58.662Z,13.50
2018-03-21T17:46:28.284Z,17.07
2018-03-21T17:49:01.027Z,21.20
2018-03-21T17:51:30.661Z,16.97
2018-03-21T17:54:01.979Z,21.97
2018-03-21T17:56:32.832Z,13.93
2018-03-21T17:59:02.566Z,15.70
2018-03-21T18:01:32.693Z,17.13
2018-03-21T18:04:02.964Z,19.10
2018-03-21T18:06:32.675Z,29.00
2018-03-21T18:09:02.114Z,30.53
2018-03-21T18:11:31.736Z,20.83
2018-03-21T18:14:01.229Z,19.20
2018-03-21T18:16:31.490Z,16.63
2018-03-21T18:19:07.652Z,22.20
2018-03-21T18:21:38.108Z,18.67
2018-03-21T18:24:07.813Z,22.87
2018-03-21T18:26:38.241Z,20.03
2018-03-21T18:29:09.458Z,19.10
2018-03-21T18:35:10.972Z,17.67
2018-03-21T18:37:40.456Z,14.53
2018-03-21T18:40:11.620Z,13.50
2018-03-21T18:42:44.667Z,12.90
2018-03-21T18:45:14.734Z,18.33
2018-03-21T18:47:44.840Z,15.47
2018-03-21T18:50:14.328Z,12.87
2018-03-21T18:52:44.072Z,20.30
2018-03-21T18:55:13.638Z,20.40
2018-03-21T18:57:43.314Z,13.60
2018-03-21T19:00:13.037Z,13.20
2018-03-21T19:02:43.322Z,22.70
2018-03-21T19:05:13.087Z,15.60
2018-03-21T19:07:43.396Z,17.83
2018-03-21T19:10:13.681Z,15.40
2018-03-21T19:12:43.212Z,16.70
2018-03-21T19:15:13.516Z,10.90
2018-03-21T19:17:45.688Z,13.23
2018-03-21T19:20:18.360Z,22.30
2018-03-21T19:22:47.978Z,12.53
2018-03-21T19:25:18.246Z,12.67
2018-03-21T19:27:47.843Z,15.40
2018-03-21T19:30:20.857Z,15.53
2018-03-21T19:32:53.978Z,13.10
2018-03-21T19:35:23.718Z,22.67
2018-03-21T19:37:54.216Z,14.73
2018-03-21T19:40:24.114Z,16.57
2018-03-21T19:42:54.257Z,15.13
2018-03-21T19:45:24.276Z,15.67
2018-03-21T19:47:55.304Z,15.10
2018-03-21T19:50:26.187Z,12.73
2018-03-21T19:52:56.013Z,12.67
2018-03-21T19:55:25.834Z,18.63
2018-03-21T19:57:56.129Z,14.47
2018-03-21T20:00:25.608Z,13.73
2018-03-21T20:05:56.730Z,16.20
2018-03-21T20:08:27.983Z,14.07
2018-03-21T20:10:57.783Z,15.63
2018-03-21T20:13:27.582Z,14.93
2018-03-21T20:15:59.431Z,11.33
2018-03-21T20:19:08.290Z,11.33
2018-03-21T20:21:38.903Z,12.57
2018-03-21T20:24:10.084Z,12.63
2018-03-21T20:26:39.701Z,16.10
2018-03-21T20:29:09.549Z,13.67
2018-03-21T20:35:15.303Z,16.00
2018-03-21T20:37:45.965Z,14.37
2018-03-21T20:40:17.288Z,17.23
2018-03-21T20:42:50.063Z,21.43
2018-03-21T20:45:19.832Z,13.30
2018-03-21T20:47:49.608Z,12.40
2018-03-21T20:50:53.886Z,8.10
2018-03-21T20:53:23.527Z,16.50
2018-03-21T20:55:54.629Z,13.73
2018-03-21T21:03:42.638Z,33.60
2018-03-21T21:13:12.413Z,13.43
2018-03-21T21:15:42.744Z,22.00
2018-03-21T21:18:16.787Z,16.07
2018-03-21T21:20:48.714Z,13.20
2018-03-21T21:23:19.277Z,11.97
2018-03-21T21:25:50.908Z,34.63
2018-03-21T21:28:20.546Z,12.90
2018-03-21T21:30:51.576Z,12.67
2018-03-21T21:33:21.090Z,11.90
2018-03-21T21:35:52.439Z,14.20
2018-03-21T21:38:42.518Z,18.23
2018-03-21T21:41:12.468Z,14.10
2018-03-21T21:43:42.600Z,9.03
2018-03-21T21:46:12.503Z,17.23
2018-03-21T21:48:42.089Z,11.03
2018-03-21T21:51:12.547Z,10.13
2018-03-21T21:53:43.427Z,14.37
2018-03-21T21:56:13.915Z,19.63
2018-03-21T21:58:44.370Z,13.27
2018-03-21T22:01:14.171Z,16.23
2018-03-21T22:03:44.640Z,15.77
2018-03-21T22:06:14.492Z,14.30
2018-03-21T22:08:44.057Z,14.13
2018-03-21T22:11:13.662Z,12.60
2018-03-21T22:13:43.887Z,14.90
2018-03-21T22:16:14.677Z,13.43
2018-03-21T22:18:44.406Z,16.40
2018-03-21T22:21:15.567Z,19.80
2018-03-21T22:23:46.270Z,12.27
2018-03-21T22:26:17.596Z,15.53
2018-03-21T22:28:47.328Z,15.17
2018-03-21T22:31:17.420Z,21.27
2018-03-21T22:33:47.402Z,14.50
2018-03-21T22:36:17.713Z,25.57
2018-03-21T22:38:49.185Z,22.97
2018-03-21T22:41:18.792Z,19.73
2018-03-21T22:43:49.557Z,20.00
2018-03-21T22:46:20.672Z,22.63
2018-03-21T22:48:53.888Z,25.40
2018-03-21T22:51:25.371Z,24.00
2018-03-21T22:53:55.575Z,12.80
2018-03-21T22:56:25.196Z,18.90
2018-03-21T22:58:56.752Z,33.53
2018-03-21T23:01:28.746Z,19.20
2018-03-21T23:06:31.738Z,17.80
2018-03-21T23:09:01.302Z,20.57
2018-03-21T23:11:32.598Z,21.90
2018-03-21T23:14:02.282Z,20.07
2018-03-21T23:16:31.945Z,32.67
2018-03-21T23:22:22.747Z,26.13
2018-03-21T23:24:55.450Z,20.63
2018-03-21T23:27:24.977Z,20.87
2018-03-21T23:29:54.433Z,15.30
2018-03-21T23:32:24.721Z,24.17
2018-03-21T23:34:56.874Z,30.03
2018-03-21T23:37:26.359Z,19.50
2018-03-21T23:39:58.525Z,26.70
2018-03-21T23:42:32.505Z,24.03
2018-03-21T23:45:02.109Z,20.03
2018-03-21T23:47:37.587Z,22.37
2018-03-21T23:50:07.944Z,23.57
2018-03-21T23:52:38.937Z,26.00
2018-03-21T23:55:13.706Z,25.43
2018-03-21T23:57:43.191Z,24.57
